createdAt,value
2019-04-10T00:00:41.272Z,8.70
2019-04-10T00:04:49.493Z,8.60
2019-04-10T00:08:57.462Z,8.60
2019-04-10T00:13:06.703Z,8.60
2019-04-10T00:17:16.524Z,8.60
2019-04-10T00:21:25.777Z,8.50
2019-04-10T00:25:35.005Z,8.50
2019-04-10T00:29:44.691Z,8.40
2019-04-10T00:33:53.656Z,8.40
2019-04-10T00:38:02.553Z,8.40
2019-04-10T00:42:12.637Z,8.30
2019-04-10T00:46:22.140Z,8.30
2019-04-10T00:50:31.106Z,8.40
2019-04-10T00:54:39.982Z,8.40
2019-04-10T00:58:48.869Z,8.40
2019-04-10T01:02:58.651Z,8.40
2019-04-10T01:07:08.626Z,8.50
2019-04-10T01:11:17.630Z,8.50
2019-04-10T01:15:26.731Z,8.50
2019-04-10T01:19:36.363Z,8.50
2019-04-10T01:23:45.382Z,8.50
2019-04-10T01:27:54.275Z,8.50
2019-04-10T01:32:03.666Z,8.50
2019-04-10T01:36:11.807Z,8.50
2019-04-10T01:40:21.696Z,8.40
2019-04-10T01:44:30.953Z,8.40
2019-04-10T01:48:40.006Z,8.40
2019-04-10T01:52:49.140Z,8.40
2019-04-10T01:56:58.178Z,8.40
2019-04-10T02:01:14.309Z,8.40
2019-04-10T02:05:23.276Z,8.30
2019-04-10T02:09:32.493Z,8.20
2019-04-10T02:13:41.763Z,8.10
2019-04-10T02:17:50.970Z,8.10
2019-04-10T02:22:00.279Z,8.00
2019-04-10T02:26:09.481Z,7.90
2019-04-10T02:30:19.659Z,7.80
2019-04-10T02:34:28.742Z,7.80
2019-04-10T02:38:53.216Z,7.80
2019-04-10T02:42:49.330Z,7.80
2019-04-10T02:46:59.692Z,7.70
2019-04-10T02:51:09.714Z,7.70
2019-04-10T02:55:19.431Z,7.70
2019-04-10T02:59:29.184Z,7.80
2019-04-10T03:03:40.205Z,7.80
2019-04-10T03:07:50.183Z,7.80
2019-04-10T03:11:59.648Z,7.80
2019-04-10T03:16:08.675Z,7.80
2019-04-10T03:20:18.426Z,7.80
2019-04-10T03:24:27.515Z,7.80
2019-04-10T03:28:35.581Z,7.70
2019-04-10T03:33:19.095Z,7.60
2019-04-10T03:37:22.569Z,7.60
2019-04-10T03:41:33.081Z,7.40
2019-04-10T03:45:42.022Z,7.30
2019-04-10T03:49:51.945Z,7.20
2019-04-10T03:54:00.930Z,7.20
2019-04-10T03:58:10.018Z,7.20
2019-04-10T04:02:19.839Z,7.20
2019-04-10T04:06:28.787Z,7.10
2019-04-10T04:10:37.955Z,7.10
2019-04-10T04:14:46.786Z,7.10
2019-04-10T04:18:55.893Z,7.10
2019-04-10T04:23:05.476Z,7.10
2019-04-10T04:27:15.245Z,7.00
2019-04-10T04:31:24.966Z,7.00
2019-04-10T04:35:34.646Z,6.90
2019-04-10T04:39:43.589Z,6.80
2019-04-10T04:43:53.339Z,6.70
2019-04-10T04:48:02.307Z,6.70
2019-04-10T04:52:12.770Z,6.60
2019-04-10T04:56:22.016Z,6.50
2019-04-10T05:00:31.952Z,6.50
2019-04-10T05:04:41.720Z,6.50
2019-04-10T05:08:50.899Z,6.40
2019-04-10T05:12:59.994Z,6.50
2019-04-10T05:17:10.050Z,6.50
2019-04-10T05:21:19.739Z,6.40
2019-04-10T05:25:29.402Z,6.40
2019-04-10T05:29:38.756Z,6.50
2019-04-10T05:33:47.777Z,6.50
2019-04-10T05:37:56.805Z,6.60
2019-04-10T05:42:06.408Z,6.70
2019-04-10T05:46:16.454Z,6.90
2019-04-10T05:50:25.735Z,6.90
2019-04-10T05:54:35.376Z,7.00
2019-04-10T05:58:44.855Z,7.00
2019-04-10T06:02:54.255Z,7.10
2019-04-10T06:07:03.343Z,7.10
2019-04-10T06:11:13.568Z,7.10
2019-04-10T06:15:23.229Z,7.10
2019-04-10T06:19:32.512Z,7.00
2019-04-10T06:23:41.452Z,7.10
2019-04-10T06:27:50.561Z,7.00
2019-04-10T06:31:59.537Z,7.00
2019-04-10T06:36:09.149Z,6.90
2019-04-10T06:40:21.107Z,6.80
2019-04-10T06:44:30.024Z,6.70
2019-04-10T06:48:38.982Z,6.70
2019-04-10T06:52:49.046Z,6.70
2019-04-10T06:56:58.677Z,6.80
2019-04-10T07:01:08.378Z,6.80
2019-04-10T07:05:17.357Z,6.80
2019-04-10T07:09:27.080Z,6.80
2019-04-10T07:13:39.709Z,6.80
2019-04-10T07:17:47.193Z,6.90
2019-04-10T07:21:58.821Z,6.90
2019-04-10T07:26:06.083Z,7.10
2019-04-10T07:30:15.332Z,7.20
2019-04-10T07:34:26.951Z,7.40
2019-04-10T07:38:35.022Z,7.50
2019-04-10T07:42:44.216Z,7.60
2019-04-10T07:46:53.302Z,7.70
2019-04-10T07:51:02.862Z,7.70
2019-04-10T07:55:12.830Z,8.00
2019-04-10T07:59:21.780Z,8.10
2019-04-10T08:03:31.143Z,8.30
2019-04-10T08:07:40.577Z,8.50
2019-04-10T08:11:50.928Z,8.80
2019-04-10T08:16:00.725Z,8.90
2019-04-10T08:20:10.886Z,8.90
2019-04-10T08:24:20.367Z,9.10
2019-04-10T08:28:30.623Z,9.20
2019-04-10T08:32:50.968Z,9.40
2019-04-10T08:36:52.839Z,9.50
2019-04-10T08:41:02.814Z,9.70
2019-04-10T08:45:13.252Z,10.00
2019-04-10T08:49:22.913Z,10.30
2019-04-10T08:53:32.159Z,10.60
2019-04-10T08:57:41.739Z,10.40
2019-04-10T09:01:51.121Z,10.40
2019-04-10T09:06:00.966Z,10.50
2019-04-10T09:10:10.291Z,10.50
2019-04-10T09:14:19.749Z,10.70
2019-04-10T09:18:29.493Z,11.00
2019-04-10T09:23:04.267Z,11.30
2019-04-10T09:26:50.584Z,11.80
2019-04-10T09:30:59.988Z,11.70
2019-04-10T09:35:09.189Z,11.60
2019-04-10T09:39:19.164Z,11.70
2019-04-10T09:43:27.407Z,11.80
2019-04-10T09:47:36.330Z,11.80
2019-04-10T09:51:45.889Z,11.50
2019-04-10T09:55:54.864Z,11.40
2019-04-10T10:00:05.326Z,11.50
2019-04-10T10:04:15.365Z,11.60
2019-04-10T10:08:24.853Z,12.10
2019-04-10T10:12:34.325Z,12.80
2019-04-10T10:16:44.171Z,13.10
2019-04-10T10:20:54.290Z,12.60
2019-04-10T10:25:03.334Z,12.00
2019-04-10T10:29:13.351Z,11.70
2019-04-10T10:33:22.418Z,11.60
2019-04-10T10:37:32.618Z,11.60
2019-04-10T10:41:42.637Z,11.90
2019-04-10T10:45:51.695Z,11.80
2019-04-10T10:50:01.097Z,11.90
2019-04-10T10:54:10.576Z,12.00
2019-04-10T10:58:20.082Z,12.10
2019-04-10T11:02:29.662Z,12.10
2019-04-10T11:06:51.549Z,12.20
2019-04-10T11:10:55.215Z,12.20
2019-04-10T11:15:02.243Z,12.10
2019-04-10T11:19:11.522Z,12.30
2019-04-10T11:23:21.877Z,12.60
2019-04-10T11:27:31.798Z,13.10
2019-04-10T11:31:41.728Z,13.80
2019-04-10T11:35:51.524Z,14.10
2019-04-10T11:40:01.444Z,14.70
2019-04-10T11:44:11.483Z,15.00
2019-04-10T11:48:22.987Z,15.50
2019-04-10T11:52:38.617Z,15.60
2019-04-10T11:56:43.686Z,15.80
2019-04-10T12:00:56.394Z,16.20
2019-04-10T12:05:09.533Z,16.60
2019-04-10T12:13:30.307Z,16.10
2019-04-10T12:17:40.222Z,16.10
2019-04-10T12:21:50.301Z,16.00
2019-04-10T12:26:01.180Z,15.80
2019-04-10T12:30:11.150Z,16.00
2019-04-10T12:34:20.255Z,15.90
2019-04-10T12:38:29.828Z,16.40
2019-04-10T12:42:38.983Z,16.60
2019-04-10T12:46:49.115Z,16.80
2019-04-10T12:50:58.314Z,17.30
2019-04-10T12:55:08.144Z,17.20
2019-04-10T12:59:17.564Z,17.20
2019-04-10T13:03:27.299Z,17.10
2019-04-10T13:07:36.321Z,17.50
2019-04-10T13:11:45.242Z,17.40
2019-04-10T13:15:54.191Z,17.60
2019-04-10T13:20:05.203Z,17.80
2019-04-10T13:24:14.350Z,18.00
2019-04-10T13:28:23.486Z,18.20
2019-04-10T13:32:32.514Z,18.40
2019-04-10T13:36:41.894Z,18.80
2019-04-10T13:40:50.775Z,19.20
2019-04-10T13:44:59.603Z,19.20
2019-04-10T13:49:09.445Z,18.80
2019-04-10T13:53:18.558Z,18.20
2019-04-10T13:57:28.578Z,17.00
2019-04-10T14:01:37.831Z,16.80
2019-04-10T14:05:47.725Z,17.30
2019-04-10T14:09:56.913Z,18.10
2019-04-10T14:14:06.509Z,18.50
2019-04-10T14:18:16.646Z,18.20
2019-04-10T14:22:26.083Z,17.80
2019-04-10T14:26:48.993Z,17.70
2019-04-10T14:30:55.729Z,17.80
2019-04-10T14:35:07.225Z,17.30
2019-04-10T14:39:20.058Z,17.00
2019-04-10T14:43:28.415Z,17.00
2019-04-10T14:47:37.393Z,17.20
2019-04-10T14:51:46.412Z,17.10
2019-04-10T14:55:55.650Z,17.00
2019-04-10T15:00:06.388Z,17.00
2019-04-10T15:04:15.514Z,17.50
2019-04-10T15:08:25.853Z,18.20
2019-04-10T15:12:35.149Z,18.30
2019-04-10T15:16:53.016Z,17.80
2019-04-10T15:20:54.869Z,17.40
2019-04-10T15:25:05.394Z,17.30
2019-04-10T15:29:14.799Z,17.20
2019-04-10T15:33:24.460Z,16.90
2019-04-10T15:37:33.579Z,16.90
2019-04-10T15:41:43.477Z,16.60
2019-04-10T15:45:52.578Z,15.90
2019-04-10T15:50:02.156Z,15.40
2019-04-10T15:54:11.744Z,15.10
2019-04-10T15:58:21.529Z,15.40
2019-04-10T16:02:30.519Z,15.60
2019-04-10T16:06:39.740Z,15.50
2019-04-10T16:10:55.145Z,15.40
2019-04-10T16:15:05.484Z,15.40
2019-04-10T16:19:23.299Z,15.30
2019-04-10T16:23:42.119Z,14.90
2019-04-10T16:27:51.625Z,14.80
2019-04-10T16:32:00.809Z,14.40
2019-04-10T16:36:10.741Z,14.40
2019-04-10T16:40:20.670Z,14.60
2019-04-10T16:44:29.866Z,14.50
2019-04-10T16:48:39.776Z,14.20
2019-04-10T16:52:49.355Z,14.00
2019-04-10T16:56:58.338Z,13.70
2019-04-10T17:01:08.363Z,13.70
2019-04-10T17:05:18.521Z,13.60
2019-04-10T17:09:28.968Z,13.40
2019-04-10T17:13:38.521Z,13.30
2019-04-10T17:17:47.580Z,13.30
2019-04-10T17:21:56.513Z,13.10
2019-04-10T17:26:06.692Z,12.70
2019-04-10T17:30:15.990Z,13.00
2019-04-10T17:34:24.985Z,13.70
2019-04-10T17:38:34.855Z,13.90
2019-04-10T17:42:46.034Z,13.60
2019-04-10T17:46:55.653Z,13.20
2019-04-10T17:51:07.853Z,12.50
2019-04-10T17:55:17.616Z,12.00
2019-04-10T17:59:26.739Z,11.50
2019-04-10T18:03:47.236Z,11.20
2019-04-10T18:07:46.579Z,10.80
2019-04-10T18:11:56.332Z,10.60
2019-04-10T18:16:05.584Z,10.40
2019-04-10T18:20:14.478Z,10.20
2019-04-10T18:24:24.142Z,10.00
2019-04-10T18:28:34.002Z,9.80
2019-04-10T18:32:45.531Z,9.70
2019-04-10T18:36:54.642Z,9.50
2019-04-10T18:41:06.869Z,9.40
2019-04-10T18:45:14.367Z,9.30
2019-04-10T18:49:23.303Z,9.10
2019-04-10T18:53:33.081Z,9.00
2019-04-10T18:57:43.104Z,8.90
2019-04-10T19:02:10.353Z,8.80
2019-04-10T19:06:25.042Z,8.70
2019-04-10T19:10:34.655Z,8.50
2019-04-10T19:14:44.638Z,8.40
2019-04-10T19:18:55.254Z,8.30
2019-04-10T19:23:04.927Z,8.20
2019-04-10T19:27:13.940Z,8.10
2019-04-10T19:31:24.595Z,7.90
2019-04-10T19:35:35.036Z,7.90
2019-04-10T19:39:44.656Z,7.80
2019-04-10T19:43:54.827Z,7.60
2019-04-10T19:48:04.948Z,7.50
2019-04-10T19:52:14.110Z,7.40
2019-04-10T19:56:23.097Z,7.30
2019-04-10T20:00:34.658Z,7.20
2019-04-10T20:04:45.055Z,7.10
2019-04-10T20:08:53.940Z,7.00
2019-04-10T20:13:02.769Z,6.90
2019-04-10T20:17:11.681Z,6.90
2019-04-10T20:21:20.669Z,6.80
2019-04-10T20:25:30.637Z,6.70
2019-04-10T20:29:39.899Z,6.60
2019-04-10T20:33:49.327Z,6.60
2019-04-10T20:37:58.877Z,6.50
2019-04-10T20:42:07.793Z,6.40
2019-04-10T20:46:16.771Z,6.30
2019-04-10T20:50:26.006Z,6.20
2019-04-10T20:54:35.082Z,6.10
2019-04-10T20:58:44.838Z,6.10
2019-04-10T21:02:55.093Z,6.00
2019-04-10T21:07:04.902Z,6.00
2019-04-10T21:11:14.163Z,5.90
2019-04-10T21:15:23.668Z,5.80
2019-04-10T21:19:33.440Z,5.70
2019-04-10T21:23:42.347Z,5.60
2019-04-10T21:27:53.263Z,5.50
2019-04-10T21:32:10.530Z,5.40
2019-04-10T21:36:20.592Z,5.30
2019-04-10T21:40:30.625Z,5.20
2019-04-10T21:44:40.571Z,5.10
2019-04-10T21:48:49.483Z,5.00
2019-04-10T21:52:59.540Z,4.90
2019-04-10T21:57:09.663Z,4.80
2019-04-10T22:01:19.211Z,4.70
2019-04-10T22:05:28.327Z,4.70
2019-04-10T22:10:03.530Z,4.60
2019-04-10T22:14:13.238Z,4.50
2019-04-10T22:18:23.334Z,4.40
2019-04-10T22:22:33.033Z,4.30
2019-04-10T22:26:42.471Z,4.20
2019-04-10T22:30:52.580Z,4.20
2019-04-10T22:35:01.613Z,4.00
2019-04-10T22:39:14.611Z,4.00
2019-04-10T22:43:24.446Z,3.90
2019-04-10T22:47:33.955Z,3.80
2019-04-10T22:51:43.887Z,3.70
2019-04-10T22:55:53.094Z,3.60
2019-04-10T23:00:03.334Z,3.60
2019-04-10T23:04:12.301Z,3.50
2019-04-10T23:08:21.162Z,3.50
2019-04-10T23:12:30.042Z,3.30
2019-04-10T23:16:40.048Z,3.30
2019-04-10T23:20:50.227Z,3.20
2019-04-10T23:25:00.063Z,3.10
2019-04-10T23:29:10.311Z,3.00
2019-04-10T23:33:19.705Z,2.90
2019-04-10T23:37:28.954Z,2.80
2019-04-10T23:41:37.957Z,2.80
2019-04-10T23:45:47.656Z,2.60
2019-04-10T23:49:57.595Z,2.50
2019-04-10T23:54:06.441Z,2.40
2019-04-10T23:58:15.969Z,2.40
